sensor_id;sensor_type;location;lat;lon;timestamp;P1;durP1;ratioP1;P2;durP2;ratioP2
62056;SDS011;48016;50.284;18.860;2023-02-02T00:00:24;6.80;;;3.80;;
62056;SDS011;48016;50.284;18.860;2023-02-02T00:03:11;9.00;;;5.00;;
62056;SDS011;48016;50.284;18.860;2023-02-02T00:05:38;7.50;;;4.30;;
62056;SDS011;48016;50.284;18.860;2023-02-02T00:08:04;9.80;;;4.90;;
62056;SDS011;48016;50.284;18.860;2023-02-02T00:10:31;8.40;;;5.00;;
62056;SDS011;48016;50.284;18.860;2023-02-02T00:13:06;9.80;;;5.30;;
62056;SDS011;48016;50.284;18.860;2023-02-02T00:15:39;8.90;;;4.80;;
62056;SDS011;48016;50.284;18.860;2023-02-02T00:18:10;8.50;;;5.10;;
62056;SDS011;48016;50.284;18.860;2023-02-02T00:20:41;7.60;;;4.60;;
62056;SDS011;48016;50.284;18.860;2023-02-02T00:23:18;6.40;;;4.30;;
62056;SDS011;48016;50.284;18.860;2023-02-02T00:25:54;6.10;;;3.90;;
62056;SDS011;48016;50.284;18.860;2023-02-02T00:28:27;6.00;;;3.40;;
62056;SDS011;48016;50.284;18.860;2023-02-02T00:30:54;7.50;;;4.10;;
62056;SDS011;48016;50.284;18.860;2023-02-02T00:33:21;5.90;;;3.30;;
62056;SDS011;48016;50.284;18.860;2023-02-02T00:35:50;6.90;;;3.80;;
62056;SDS011;48016;50.284;18.860;2023-02-02T00:38:18;6.10;;;3.30;;
62056;SDS011;48016;50.284;18.860;2023-02-02T00:43:12;5.80;;;3.30;;
62056;SDS011;48016;50.284;18.860;2023-02-02T00:45:39;6.10;;;3.70;;
62056;SDS011;48016;50.284;18.860;2023-02-02T00:48:07;7.10;;;4.20;;
62056;SDS011;48016;50.284;18.860;2023-02-02T00:50:36;10.50;;;4.50;;
62056;SDS011;48016;50.284;18.860;2023-02-02T00:53:03;8.50;;;4.20;;
62056;SDS011;48016;50.284;18.860;2023-02-02T00:55:29;9.70;;;4.40;;
62056;SDS011;48016;50.284;18.860;2023-02-02T00:57:57;6.90;;;4.10;;
62056;SDS011;48016;50.284;18.860;2023-02-02T01:00:25;7.10;;;4.60;;
62056;SDS011;48016;50.284;18.860;2023-02-02T01:02:53;8.00;;;4.20;;
62056;SDS011;48016;50.284;18.860;2023-02-02T01:05:21;6.60;;;3.30;;
62056;SDS011;48016;50.284;18.860;2023-02-02T01:07:48;7.90;;;4.30;;
62056;SDS011;48016;50.284;18.860;2023-02-02T01:10:16;8.50;;;4.40;;
62056;SDS011;48016;50.284;18.860;2023-02-02T01:12:44;11.10;;;5.10;;
62056;SDS011;48016;50.284;18.860;2023-02-02T01:15:11;8.60;;;4.90;;
62056;SDS011;48016;50.284;18.860;2023-02-02T01:17:39;8.20;;;5.10;;
62056;SDS011;48016;50.284;18.860;2023-02-02T01:20:06;10.90;;;5.30;;
62056;SDS011;48016;50.284;18.860;2023-02-02T01:22:34;8.80;;;5.10;;
62056;SDS011;48016;50.284;18.860;2023-02-02T01:25:01;11.10;;;4.80;;
62056;SDS011;48016;50.284;18.860;2023-02-02T01:27:28;11.00;;;5.50;;
62056;SDS011;48016;50.284;18.860;2023-02-02T01:29:54;11.50;;;4.80;;
62056;SDS011;48016;50.284;18.860;2023-02-02T01:32:21;13.50;;;5.50;;
62056;SDS011;48016;50.284;18.860;2023-02-02T01:34:48;8.10;;;5.00;;
62056;SDS011;48016;50.284;18.860;2023-02-02T01:37:15;10.30;;;4.30;;
62056;SDS011;48016;50.284;18.860;2023-02-02T01:39:42;9.80;;;4.80;;
62056;SDS011;48016;50.284;18.860;2023-02-02T01:42:13;13.20;;;5.30;;
62056;SDS011;48016;50.284;18.860;2023-02-02T01:47:55;8.80;;;4.50;;
62056;SDS011;48016;50.284;18.860;2023-02-02T01:50:27;11.30;;;4.30;;
62056;SDS011;48016;50.284;18.860;2023-02-02T01:52:58;8.20;;;4.40;;
62056;SDS011;48016;50.284;18.860;2023-02-02T01:55:27;8.20;;;4.20;;
62056;SDS011;48016;50.284;18.860;2023-02-02T01:58:01;12.40;;;5.30;;
62056;SDS011;48016;50.284;18.860;2023-02-02T02:00:28;9.40;;;4.60;;
62056;SDS011;48016;50.284;18.860;2023-02-02T02:02:56;10.20;;;4.30;;
62056;SDS011;48016;50.284;18.860;2023-02-02T02:05:30;9.60;;;4.50;;
62056;SDS011;48016;50.284;18.860;2023-02-02T02:08:09;9.30;;;4.10;;
62056;SDS011;48016;50.284;18.860;2023-02-02T02:10:40;10.70;;;4.40;;
62056;SDS011;48016;50.284;18.860;2023-02-02T02:13:07;13.10;;;4.80;;
62056;SDS011;48016;50.284;18.860;2023-02-02T02:15:38;7.40;;;3.90;;
62056;SDS011;48016;50.284;18.860;2023-02-02T02:18:48;10.10;;;4.50;;
62056;SDS011;48016;50.284;18.860;2023-02-02T02:27:55;10.90;;;4.70;;
62056;SDS011;48016;50.284;18.860;2023-02-02T02:33:18;9.10;;;3.60;;
62056;SDS011;48016;50.284;18.860;2023-02-02T02:36:14;9.70;;;4.50;;
62056;SDS011;48016;50.284;18.860;2023-02-02T02:39:03;7.90;;;4.10;;
62056;SDS011;48016;50.284;18.860;2023-02-02T02:41:40;9.00;;;3.60;;
62056;SDS011;48016;50.284;18.860;2023-02-02T02:44:13;8.70;;;3.90;;
62056;SDS011;48016;50.284;18.860;2023-02-02T02:46:43;8.80;;;4.30;;
62056;SDS011;48016;50.284;18.860;2023-02-02T02:49:10;8.80;;;3.70;;
62056;SDS011;48016;50.284;18.860;2023-02-02T02:54:23;7.40;;;3.20;;
62056;SDS011;48016;50.284;18.860;2023-02-02T03:05:32;6.60;;;2.60;;
62056;SDS011;48016;50.284;18.860;2023-02-02T03:08:06;6.60;;;2.40;;
62056;SDS011;48016;50.284;18.860;2023-02-02T03:10:40;6.80;;;3.10;;
62056;SDS011;48016;50.284;18.860;2023-02-02T03:13:10;9.80;;;3.10;;
62056;SDS011;48016;50.284;18.860;2023-02-02T03:15:40;6.60;;;3.10;;
62056;SDS011;48016;50.284;18.860;2023-02-02T03:18:08;10.30;;;3.10;;
62056;SDS011;48016;50.284;18.860;2023-02-02T03:20:35;7.40;;;2.50;;
62056;SDS011;48016;50.284;18.860;2023-02-02T03:23:01;5.30;;;2.00;;
62056;SDS011;48016;50.284;18.860;2023-02-02T03:25:28;6.50;;;2.30;;
62056;SDS011;48016;50.284;18.860;2023-02-02T03:27:55;7.20;;;2.40;;
62056;SDS011;48016;50.284;18.860;2023-02-02T03:30:21;8.20;;;2.50;;
62056;SDS011;48016;50.284;18.860;2023-02-02T03:32:48;6.70;;;2.90;;
62056;SDS011;48016;50.284;18.860;2023-02-02T03:35:17;8.00;;;2.10;;
62056;SDS011;48016;50.284;18.860;2023-02-02T03:37:46;8.00;;;2.70;;
62056;SDS011;48016;50.284;18.860;2023-02-02T03:42:40;8.30;;;2.60;;
62056;SDS011;48016;50.284;18.860;2023-02-02T03:45:07;6.30;;;2.20;;
62056;SDS011;48016;50.284;18.860;2023-02-02T03:47:34;6.30;;;2.70;;
62056;SDS011;48016;50.284;18.860;2023-02-02T03:50:01;11.10;;;2.50;;
62056;SDS011;48016;50.284;18.860;2023-02-02T03:52:28;7.00;;;2.60;;
62056;SDS011;48016;50.284;18.860;2023-02-02T03:54:55;7.40;;;2.60;;
62056;SDS011;48016;50.284;18.860;2023-02-02T03:57:21;8.60;;;2.60;;
62056;SDS011;48016;50.284;18.860;2023-02-02T03:59:48;6.30;;;2.20;;
62056;SDS011;48016;50.284;18.860;2023-02-02T04:02:15;8.00;;;2.50;;
62056;SDS011;48016;50.284;18.860;2023-02-02T04:04:42;9.00;;;2.20;;
62056;SDS011;48016;50.284;18.860;2023-02-02T04:07:08;12.10;;;3.00;;
62056;SDS011;48016;50.284;18.860;2023-02-02T04:09:35;7.20;;;2.40;;
62056;SDS011;48016;50.284;18.860;2023-02-02T04:12:02;7.70;;;2.30;;
62056;SDS011;48016;50.284;18.860;2023-02-02T04:14:29;5.20;;;2.70;;
62056;SDS011;48016;50.284;18.860;2023-02-02T04:16:55;11.70;;;3.50;;
62056;SDS011;48016;50.284;18.860;2023-02-02T04:19:22;10.60;;;3.70;;
62056;SDS011;48016;50.284;18.860;2023-02-02T04:21:49;15.20;;;4.10;;
62056;SDS011;48016;50.284;18.860;2023-02-02T04:24:15;13.70;;;5.20;;
62056;SDS011;48016;50.284;18.860;2023-02-02T04:26:42;12.40;;;5.10;;
62056;SDS011;48016;50.284;18.860;2023-02-02T04:29:09;14.10;;;4.60;;
62056;SDS011;48016;50.284;18.860;2023-02-02T04:31:35;11.50;;;4.20;;
62056;SDS011;48016;50.284;18.860;2023-02-02T04:34:02;10.70;;;4.40;;
62056;SDS011;48016;50.284;18.860;2023-02-02T04:36:29;12.30;;;4.20;;
62056;SDS011;48016;50.284;18.860;2023-02-02T04:38:55;6.60;;;2.80;;
62056;SDS011;48016;50.284;18.860;2023-02-02T04:41:22;9.70;;;3.00;;
62056;SDS011;48016;50.284;18.860;2023-02-02T04:43:49;8.00;;;2.60;;
62056;SDS011;48016;50.284;18.860;2023-02-02T04:46:16;8.00;;;2.60;;
62056;SDS011;48016;50.284;18.860;2023-02-02T04:48:43;6.30;;;2.80;;
62056;SDS011;48016;50.284;18.860;2023-02-02T04:51:13;6.40;;;3.30;;
62056;SDS011;48016;50.284;18.860;2023-02-02T04:53:40;8.30;;;3.20;;
62056;SDS011;48016;50.284;18.860;2023-02-02T04:56:09;6.30;;;2.70;;
62056;SDS011;48016;50.284;18.860;2023-02-02T04:58:39;11.40;;;3.20;;
62056;SDS011;48016;50.284;18.860;2023-02-02T05:01:14;10.80;;;2.80;;
62056;SDS011;48016;50.284;18.860;2023-02-02T05:03:43;7.60;;;2.50;;
62056;SDS011;48016;50.284;18.860;2023-02-02T05:06:11;10.90;;;3.40;;
62056;SDS011;48016;50.284;18.860;2023-02-02T05:11:09;8.30;;;2.40;;
62056;SDS011;48016;50.284;18.860;2023-02-02T05:13:37;7.30;;;2.70;;
62056;SDS011;48016;50.284;18.860;2023-02-02T05:16:03;6.20;;;2.30;;
62056;SDS011;48016;50.284;18.860;2023-02-02T05:18:31;12.10;;;2.80;;
62056;SDS011;48016;50.284;18.860;2023-02-02T05:20:59;6.70;;;2.10;;
62056;SDS011;48016;50.284;18.860;2023-02-02T05:23:27;8.80;;;2.40;;
62056;SDS011;48016;50.284;18.860;2023-02-02T05:25:54;5.40;;;2.30;;
62056;SDS011;48016;50.284;18.860;2023-02-02T05:28:22;4.90;;;1.90;;
62056;SDS011;48016;50.284;18.860;2023-02-02T05:30:50;8.60;;;2.80;;
62056;SDS011;48016;50.284;18.860;2023-02-02T05:33:17;9.30;;;3.20;;
62056;SDS011;48016;50.284;18.860;2023-02-02T05:35:45;8.10;;;2.10;;
62056;SDS011;48016;50.284;18.860;2023-02-02T05:38:13;8.70;;;2.60;;
62056;SDS011;48016;50.284;18.860;2023-02-02T05:40:41;8.20;;;2.40;;
62056;SDS011;48016;50.284;18.860;2023-02-02T05:43:08;7.30;;;2.40;;
62056;SDS011;48016;50.284;18.860;2023-02-02T05:45:35;6.90;;;2.50;;
62056;SDS011;48016;50.284;18.860;2023-02-02T05:48:01;8.20;;;2.10;;
62056;SDS011;48016;50.284;18.860;2023-02-02T05:50:28;8.20;;;2.40;;
62056;SDS011;48016;50.284;18.860;2023-02-02T05:52:55;8.90;;;2.20;;
62056;SDS011;48016;50.284;18.860;2023-02-02T05:55:21;9.10;;;2.60;;
62056;SDS011;48016;50.284;18.860;2023-02-02T05:57:48;8.10;;;2.80;;
62056;SDS011;48016;50.284;18.860;2023-02-02T06:00:15;9.10;;;2.50;;
62056;SDS011;48016;50.284;18.860;2023-02-02T06:02:42;7.40;;;2.70;;
62056;SDS011;48016;50.284;18.860;2023-02-02T06:05:09;10.20;;;2.70;;
62056;SDS011;48016;50.284;18.860;2023-02-02T06:07:35;11.70;;;3.00;;
62056;SDS011;48016;50.284;18.860;2023-02-02T06:10:02;11.70;;;4.80;;
62056;SDS011;48016;50.284;18.860;2023-02-02T06:12:29;9.30;;;3.10;;
62056;SDS011;48016;50.284;18.860;2023-02-02T06:14:57;8.90;;;3.60;;
62056;SDS011;48016;50.284;18.860;2023-02-02T06:17:23;10.90;;;4.00;;
62056;SDS011;48016;50.284;18.860;2023-02-02T06:19:50;12.90;;;4.50;;
62056;SDS011;48016;50.284;18.860;2023-02-02T06:22:17;9.60;;;4.00;;
62056;SDS011;48016;50.284;18.860;2023-02-02T06:24:43;9.50;;;3.70;;
62056;SDS011;48016;50.284;18.860;2023-02-02T06:27:10;13.20;;;4.20;;
62056;SDS011;48016;50.284;18.860;2023-02-02T06:29:36;14.10;;;4.40;;
62056;SDS011;48016;50.284;18.860;2023-02-02T06:32:03;14.50;;;4.60;;
62056;SDS011;48016;50.284;18.860;2023-02-02T06:34:30;12.10;;;4.80;;
62056;SDS011;48016;50.284;18.860;2023-02-02T06:36:56;9.10;;;4.80;;
62056;SDS011;48016;50.284;18.860;2023-02-02T06:39:23;10.00;;;3.90;;
62056;SDS011;48016;50.284;18.860;2023-02-02T06:41:50;12.30;;;4.10;;
62056;SDS011;48016;50.284;18.860;2023-02-02T06:44:17;10.60;;;4.10;;
62056;SDS011;48016;50.284;18.860;2023-02-02T06:46:46;9.70;;;4.20;;
62056;SDS011;48016;50.284;18.860;2023-02-02T06:49:13;10.40;;;4.50;;
62056;SDS011;48016;50.284;18.860;2023-02-02T06:51:40;15.10;;;5.00;;
62056;SDS011;48016;50.284;18.860;2023-02-02T06:54:06;13.80;;;4.90;;
62056;SDS011;48016;50.284;18.860;2023-02-02T06:56:33;11.10;;;5.20;;
62056;SDS011;48016;50.284;18.860;2023-02-02T06:59:00;12.80;;;5.00;;
62056;SDS011;48016;50.284;18.860;2023-02-02T07:01:27;11.10;;;4.90;;
62056;SDS011;48016;50.284;18.860;2023-02-02T07:03:53;10.60;;;5.40;;
62056;SDS011;48016;50.284;18.860;2023-02-02T07:06:22;12.70;;;6.30;;
62056;SDS011;48016;50.284;18.860;2023-02-02T07:08:50;12.70;;;6.40;;
62056;SDS011;48016;50.284;18.860;2023-02-02T07:11:18;12.50;;;6.60;;
62056;SDS011;48016;50.284;18.860;2023-02-02T07:13:45;12.10;;;5.50;;
62056;SDS011;48016;50.284;18.860;2023-02-02T07:16:14;14.50;;;5.60;;
62056;SDS011;48016;50.284;18.860;2023-02-02T07:18:42;16.50;;;5.80;;
62056;SDS011;48016;50.284;18.860;2023-02-02T07:21:10;10.30;;;5.30;;
62056;SDS011;48016;50.284;18.860;2023-02-02T07:23:43;16.10;;;6.50;;
62056;SDS011;48016;50.284;18.860;2023-02-02T07:26:09;13.40;;;6.50;;
62056;SDS011;48016;50.284;18.860;2023-02-02T07:28:38;12.90;;;6.50;;
62056;SDS011;48016;50.284;18.860;2023-02-02T07:31:15;16.30;;;6.50;;
62056;SDS011;48016;50.284;18.860;2023-02-02T07:33:44;14.30;;;5.70;;
62056;SDS011;48016;50.284;18.860;2023-02-02T07:36:12;14.40;;;6.10;;
62056;SDS011;48016;50.284;18.860;2023-02-02T07:38:42;13.10;;;5.90;;
62056;SDS011;48016;50.284;18.860;2023-02-02T07:41:10;14.20;;;6.10;;
62056;SDS011;48016;50.284;18.860;2023-02-02T07:43:37;17.50;;;5.80;;
62056;SDS011;48016;50.284;18.860;2023-02-02T07:46:05;15.20;;;6.00;;
62056;SDS011;48016;50.284;18.860;2023-02-02T07:48:35;14.20;;;6.00;;
62056;SDS011;48016;50.284;18.860;2023-02-02T07:51:03;10.90;;;4.90;;
62056;SDS011;48016;50.284;18.860;2023-02-02T07:53:31;10.90;;;4.40;;
62056;SDS011;48016;50.284;18.860;2023-02-02T07:56:09;9.50;;;4.40;;
62056;SDS011;48016;50.284;18.860;2023-02-02T07:58:37;10.40;;;4.40;;
62056;SDS011;48016;50.284;18.860;2023-02-02T08:01:06;10.20;;;4.00;;
62056;SDS011;48016;50.284;18.860;2023-02-02T08:03:34;11.40;;;4.70;;
62056;SDS011;48016;50.284;18.860;2023-02-02T08:06:07;10.40;;;3.50;;
62056;SDS011;48016;50.284;18.860;2023-02-02T08:08:43;10.20;;;3.70;;
62056;SDS011;48016;50.284;18.860;2023-02-02T08:11:10;11.70;;;4.30;;
62056;SDS011;48016;50.284;18.860;2023-02-02T08:13:39;8.80;;;4.00;;
62056;SDS011;48016;50.284;18.860;2023-02-02T08:16:07;7.00;;;3.40;;
62056;SDS011;48016;50.284;18.860;2023-02-02T08:18:34;10.20;;;3.60;;
62056;SDS011;48016;50.284;18.860;2023-02-02T08:21:02;8.30;;;3.90;;
62056;SDS011;48016;50.284;18.860;2023-02-02T08:23:30;6.60;;;3.20;;
62056;SDS011;48016;50.284;18.860;2023-02-02T08:26:07;7.20;;;3.00;;
62056;SDS011;48016;50.284;18.860;2023-02-02T08:28:40;7.90;;;2.40;;
62056;SDS011;48016;50.284;18.860;2023-02-02T08:31:13;6.80;;;3.10;;
62056;SDS011;48016;50.284;18.860;2023-02-02T08:33:44;6.30;;;2.80;;
62056;SDS011;48016;50.284;18.860;2023-02-02T08:36:12;7.10;;;3.10;;
62056;SDS011;48016;50.284;18.860;2023-02-02T08:38:39;6.50;;;2.70;;
62056;SDS011;48016;50.284;18.860;2023-02-02T08:41:07;5.70;;;2.80;;
62056;SDS011;48016;50.284;18.860;2023-02-02T08:43:38;5.60;;;2.60;;
62056;SDS011;48016;50.284;18.860;2023-02-02T08:48:32;4.30;;;2.50;;
62056;SDS011;48016;50.284;18.860;2023-02-02T08:51:00;10.70;;;3.30;;
62056;SDS011;48016;50.284;18.860;2023-02-02T08:53:28;6.20;;;2.60;;
62056;SDS011;48016;50.284;18.860;2023-02-02T08:58:23;4.80;;;2.20;;
62056;SDS011;48016;50.284;18.860;2023-02-02T09:00:49;8.30;;;2.60;;
62056;SDS011;48016;50.284;18.860;2023-02-02T09:03:16;7.70;;;2.90;;
62056;SDS011;48016;50.284;18.860;2023-02-02T09:05:43;6.10;;;2.90;;
62056;SDS011;48016;50.284;18.860;2023-02-02T09:08:09;4.30;;;2.40;;
62056;SDS011;48016;50.284;18.860;2023-02-02T09:10:36;6.00;;;3.20;;
62056;SDS011;48016;50.284;18.860;2023-02-02T09:13:03;7.60;;;4.00;;
62056;SDS011;48016;50.284;18.860;2023-02-02T09:15:30;8.30;;;3.50;;
62056;SDS011;48016;50.284;18.860;2023-02-02T09:17:56;8.20;;;3.10;;
62056;SDS011;48016;50.284;18.860;2023-02-02T09:20:23;7.40;;;3.20;;
62056;SDS011;48016;50.284;18.860;2023-02-02T09:22:50;6.50;;;2.70;;
62056;SDS011;48016;50.284;18.860;2023-02-02T09:25:16;6.60;;;2.60;;
62056;SDS011;48016;50.284;18.860;2023-02-02T09:27:43;6.20;;;2.80;;
62056;SDS011;48016;50.284;18.860;2023-02-02T09:30:10;9.00;;;3.50;;
62056;SDS011;48016;50.284;18.860;2023-02-02T09:32:37;9.20;;;3.90;;
62056;SDS011;48016;50.284;18.860;2023-02-02T09:35:04;10.60;;;4.10;;
62056;SDS011;48016;50.284;18.860;2023-02-02T09:37:32;7.40;;;3.60;;
62056;SDS011;48016;50.284;18.860;2023-02-02T09:40:00;9.50;;;4.70;;
62056;SDS011;48016;50.284;18.860;2023-02-02T09:46:08;6.40;;;3.90;;
62056;SDS011;48016;50.284;18.860;2023-02-02T09:48:53;5.90;;;2.90;;
62056;SDS011;48016;50.284;18.860;2023-02-02T09:51:28;8.50;;;3.20;;
62056;SDS011;48016;50.284;18.860;2023-02-02T09:54:03;5.80;;;2.90;;
62056;SDS011;48016;50.284;18.860;2023-02-02T09:56:42;7.40;;;3.70;;
62056;SDS011;48016;50.284;18.860;2023-02-02T09:59:17;8.20;;;3.30;;
62056;SDS011;48016;50.284;18.860;2023-02-02T10:01:57;10.30;;;4.80;;
62056;SDS011;48016;50.284;18.860;2023-02-02T10:07:03;14.90;;;7.10;;
62056;SDS011;48016;50.284;18.860;2023-02-02T10:09:39;14.60;;;7.90;;
62056;SDS011;48016;50.284;18.860;2023-02-02T10:15:41;14.00;;;6.30;;
62056;SDS011;48016;50.284;18.860;2023-02-02T10:18:25;8.90;;;4.70;;
62056;SDS011;48016;50.284;18.860;2023-02-02T10:21:07;17.40;;;7.20;;
62056;SDS011;48016;50.284;18.860;2023-02-02T10:23:41;13.90;;;8.30;;
62056;SDS011;48016;50.284;18.860;2023-02-02T10:34:26;12.40;;;5.20;;
62056;SDS011;48016;50.284;18.860;2023-02-02T10:37:42;10.50;;;3.80;;
62056;SDS011;48016;50.284;18.860;2023-02-02T10:40:14;6.90;;;3.50;;
62056;SDS011;48016;50.284;18.860;2023-02-02T10:42:55;6.90;;;3.00;;
62056;SDS011;48016;50.284;18.860;2023-02-02T10:46:03;8.10;;;2.50;;
62056;SDS011;48016;50.284;18.860;2023-02-02T10:48:35;7.20;;;2.70;;
62056;SDS011;48016;50.284;18.860;2023-02-02T10:51:03;7.20;;;2.60;;
62056;SDS011;48016;50.284;18.860;2023-02-02T10:53:48;4.90;;;2.10;;
62056;SDS011;48016;50.284;18.860;2023-02-02T10:56:18;5.90;;;2.60;;
62056;SDS011;48016;50.284;18.860;2023-02-02T10:59:11;7.10;;;2.90;;
62056;SDS011;48016;50.284;18.860;2023-02-02T11:01:39;6.40;;;2.50;;
62056;SDS011;48016;50.284;18.860;2023-02-02T11:04:08;5.40;;;2.70;;
62056;SDS011;48016;50.284;18.860;2023-02-02T11:06:54;7.10;;;3.30;;
62056;SDS011;48016;50.284;18.860;2023-02-02T11:09:22;6.40;;;2.80;;
62056;SDS011;48016;50.284;18.860;2023-02-02T11:11:54;6.40;;;3.40;;
62056;SDS011;48016;50.284;18.860;2023-02-02T11:14:33;10.10;;;4.70;;
62056;SDS011;48016;50.284;18.860;2023-02-02T11:17:13;7.60;;;3.20;;
62056;SDS011;48016;50.284;18.860;2023-02-02T11:19:45;6.10;;;3.30;;
62056;SDS011;48016;50.284;18.860;2023-02-02T11:22:27;7.30;;;2.70;;
62056;SDS011;48016;50.284;18.860;2023-02-02T11:24:59;4.30;;;2.40;;
62056;SDS011;48016;50.284;18.860;2023-02-02T11:27:32;5.30;;;2.00;;
62056;SDS011;48016;50.284;18.860;2023-02-02T11:30:23;5.80;;;2.70;;
62056;SDS011;48016;50.284;18.860;2023-02-02T11:32:55;6.40;;;2.90;;
62056;SDS011;48016;50.284;18.860;2023-02-02T11:35:23;8.80;;;3.10;;
62056;SDS011;48016;50.284;18.860;2023-02-02T11:37:54;9.60;;;4.10;;
62056;SDS011;48016;50.284;18.860;2023-02-02T11:40:33;9.20;;;3.90;;
62056;SDS011;48016;50.284;18.860;2023-02-02T11:43:04;9.40;;;4.60;;
62056;SDS011;48016;50.284;18.860;2023-02-02T11:45:40;11.10;;;4.90;;
62056;SDS011;48016;50.284;18.860;2023-02-02T11:50:44;11.40;;;4.80;;
62056;SDS011;48016;50.284;18.860;2023-02-02T11:53:27;11.30;;;4.20;;
62056;SDS011;48016;50.284;18.860;2023-02-02T11:56:23;6.30;;;2.90;;
62056;SDS011;48016;50.284;18.860;2023-02-02T11:58:52;7.00;;;3.20;;
62056;SDS011;48016;50.284;18.860;2023-02-02T12:03:58;7.20;;;3.20;;
62056;SDS011;48016;50.284;18.860;2023-02-02T12:06:36;9.40;;;3.00;;
62056;SDS011;48016;50.284;18.860;2023-02-02T12:09:13;5.50;;;2.20;;
62056;SDS011;48016;50.284;18.860;2023-02-02T12:33:22;8.10;;;3.30;;
62056;SDS011;48016;50.284;18.860;2023-02-02T12:50:09;6.50;;;3.20;;
62056;SDS011;48016;50.284;18.860;2023-02-02T12:58:59;7.10;;;2.30;;
62056;SDS011;48016;50.284;18.860;2023-02-02T13:04:45;9.20;;;3.40;;
62056;SDS011;48016;50.284;18.860;2023-02-02T13:13:06;6.80;;;2.70;;
62056;SDS011;48016;50.284;18.860;2023-02-02T13:15:47;7.90;;;3.60;;
62056;SDS011;48016;50.284;18.860;2023-02-02T13:18:19;9.20;;;2.90;;
62056;SDS011;48016;50.284;18.860;2023-02-02T13:20:58;6.50;;;3.00;;
62056;SDS011;48016;50.284;18.860;2023-02-02T13:23:50;8.30;;;3.00;;
62056;SDS011;48016;50.284;18.860;2023-02-02T13:26:23;6.20;;;2.60;;
62056;SDS011;48016;50.284;18.860;2023-02-02T13:28:57;6.90;;;3.00;;
62056;SDS011;48016;50.284;18.860;2023-02-02T13:37:21;7.00;;;2.40;;
62056;SDS011;48016;50.284;18.860;2023-02-02T13:39:55;5.00;;;2.80;;
62056;SDS011;48016;50.284;18.860;2023-02-02T13:42:30;7.40;;;2.80;;
62056;SDS011;48016;50.284;18.860;2023-02-02T13:45:01;5.60;;;2.70;;
62056;SDS011;48016;50.284;18.860;2023-02-02T13:47:45;7.00;;;2.50;;
62056;SDS011;48016;50.284;18.860;2023-02-02T13:50:18;7.70;;;2.50;;
62056;SDS011;48016;50.284;18.860;2023-02-02T13:53:03;7.60;;;3.20;;
62056;SDS011;48016;50.284;18.860;2023-02-02T14:01:22;7.70;;;2.80;;
62056;SDS011;48016;50.284;18.860;2023-02-02T14:03:52;4.90;;;2.40;;
62056;SDS011;48016;50.284;18.860;2023-02-02T14:06:22;6.50;;;2.20;;
62056;SDS011;48016;50.284;18.860;2023-02-02T14:08:54;5.90;;;2.30;;
62056;SDS011;48016;50.284;18.860;2023-02-02T14:11:28;5.60;;;1.90;;
62056;SDS011;48016;50.284;18.860;2023-02-02T14:40:40;4.60;;;1.80;;
62056;SDS011;48016;50.284;18.860;2023-02-02T14:43:46;4.40;;;2.00;;
62056;SDS011;48016;50.284;18.860;2023-02-02T14:48:41;5.80;;;2.00;;
62056;SDS011;48016;50.284;18.860;2023-02-02T14:51:24;3.60;;;1.70;;
62056;SDS011;48016;50.284;18.860;2023-02-02T14:53:57;6.20;;;2.00;;
62056;SDS011;48016;50.284;18.860;2023-02-02T14:56:44;6.60;;;2.70;;
62056;SDS011;48016;50.284;18.860;2023-02-02T14:59:18;5.50;;;2.70;;
62056;SDS011;48016;50.284;18.860;2023-02-02T15:01:56;5.10;;;1.90;;
62056;SDS011;48016;50.284;18.860;2023-02-02T15:04:28;6.40;;;1.90;;
62056;SDS011;48016;50.284;18.860;2023-02-02T15:09:42;6.90;;;2.10;;
62056;SDS011;48016;50.284;18.860;2023-02-02T15:14:43;6.70;;;2.70;;
62056;SDS011;48016;50.284;18.860;2023-02-02T15:17:32;4.70;;;2.10;;
62056;SDS011;48016;50.284;18.860;2023-02-02T15:22:48;6.30;;;2.00;;
62056;SDS011;48016;50.284;18.860;2023-02-02T15:25:23;7.40;;;2.30;;
62056;SDS011;48016;50.284;18.860;2023-02-02T15:30:45;8.90;;;2.40;;
62056;SDS011;48016;50.284;18.860;2023-02-02T15:33:29;4.70;;;2.00;;
62056;SDS011;48016;50.284;18.860;2023-02-02T15:36:08;6.60;;;2.20;;
62056;SDS011;48016;50.284;18.860;2023-02-02T15:38:41;6.30;;;2.20;;
62056;SDS011;48016;50.284;18.860;2023-02-02T15:41:24;5.90;;;2.60;;
62056;SDS011;48016;50.284;18.860;2023-02-02T15:43:53;7.10;;;2.40;;
62056;SDS011;48016;50.284;18.860;2023-02-02T15:46:22;7.90;;;2.80;;
62056;SDS011;48016;50.284;18.860;2023-02-02T15:51:47;8.30;;;2.60;;
62056;SDS011;48016;50.284;18.860;2023-02-02T15:56:50;5.60;;;2.80;;
62056;SDS011;48016;50.284;18.860;2023-02-02T15:59:18;7.90;;;3.30;;
62056;SDS011;48016;50.284;18.860;2023-02-02T16:01:51;6.50;;;2.80;;
62056;SDS011;48016;50.284;18.860;2023-02-02T16:04:31;6.70;;;2.90;;
62056;SDS011;48016;50.284;18.860;2023-02-02T16:07:01;8.70;;;3.10;;
62056;SDS011;48016;50.284;18.860;2023-02-02T16:09:32;8.10;;;3.60;;
62056;SDS011;48016;50.284;18.860;2023-02-02T16:12:00;8.60;;;3.50;;
62056;SDS011;48016;50.284;18.860;2023-02-02T16:14:31;8.10;;;4.20;;
62056;SDS011;48016;50.284;18.860;2023-02-02T16:17:11;7.90;;;3.40;;
62056;SDS011;48016;50.284;18.860;2023-02-02T16:19:46;13.40;;;4.10;;
62056;SDS011;48016;50.284;18.860;2023-02-02T16:22:17;10.70;;;3.90;;
62056;SDS011;48016;50.284;18.860;2023-02-02T16:24:48;12.50;;;4.20;;
62056;SDS011;48016;50.284;18.860;2023-02-02T16:27:20;13.50;;;5.50;;
62056;SDS011;48016;50.284;18.860;2023-02-02T16:29:49;13.70;;;5.90;;
62056;SDS011;48016;50.284;18.860;2023-02-02T16:32:35;13.80;;;6.40;;
62056;SDS011;48016;50.284;18.860;2023-02-02T16:35:05;21.30;;;8.40;;
62056;SDS011;48016;50.284;18.860;2023-02-02T16:37:50;13.90;;;7.50;;
62056;SDS011;48016;50.284;18.860;2023-02-02T16:40:23;15.00;;;7.30;;
62056;SDS011;48016;50.284;18.860;2023-02-02T16:45:48;15.20;;;7.40;;
62056;SDS011;48016;50.284;18.860;2023-02-02T16:51:07;13.10;;;5.80;;
62056;SDS011;48016;50.284;18.860;2023-02-02T16:53:41;12.90;;;5.80;;
62056;SDS011;48016;50.284;18.860;2023-02-02T16:56:22;14.80;;;5.80;;
62056;SDS011;48016;50.284;18.860;2023-02-02T16:59:21;11.20;;;5.30;;
62056;SDS011;48016;50.284;18.860;2023-02-02T17:01:52;14.80;;;6.30;;
62056;SDS011;48016;50.284;18.860;2023-02-02T17:04:30;12.60;;;5.80;;
62056;SDS011;48016;50.284;18.860;2023-02-02T17:07:11;12.80;;;5.90;;
62056;SDS011;48016;50.284;18.860;2023-02-02T17:09:41;12.90;;;6.20;;
62056;SDS011;48016;50.284;18.860;2023-02-02T17:14:53;9.30;;;4.30;;
62056;SDS011;48016;50.284;18.860;2023-02-02T17:17:23;7.00;;;3.50;;
62056;SDS011;48016;50.284;18.860;2023-02-02T17:19:50;8.50;;;3.40;;
62056;SDS011;48016;50.284;18.860;2023-02-02T17:22:17;9.40;;;3.80;;
62056;SDS011;48016;50.284;18.860;2023-02-02T17:24:48;9.20;;;3.70;;
62056;SDS011;48016;50.284;18.860;2023-02-02T17:27:17;6.60;;;2.50;;
62056;SDS011;48016;50.284;18.860;2023-02-02T17:29:51;8.40;;;3.10;;
62056;SDS011;48016;50.284;18.860;2023-02-02T17:32:19;8.10;;;3.60;;
62056;SDS011;48016;50.284;18.860;2023-02-02T17:34:45;8.20;;;3.40;;
62056;SDS011;48016;50.284;18.860;2023-02-02T17:37:12;5.40;;;2.90;;
62056;SDS011;48016;50.284;18.860;2023-02-02T17:39:39;9.50;;;3.90;;
62056;SDS011;48016;50.284;18.860;2023-02-02T17:42:07;6.80;;;3.60;;
62056;SDS011;48016;50.284;18.860;2023-02-02T17:44:51;7.30;;;3.70;;
62056;SDS011;48016;50.284;18.860;2023-02-02T17:47:18;10.50;;;3.90;;
62056;SDS011;48016;50.284;18.860;2023-02-02T17:49:45;9.60;;;3.90;;